createdAt,value
2022-10-02T00:00:52.962Z,82.21
2022-10-02T00:02:25.084Z,81.54
2022-10-02T00:03:31.161Z,81.74
2022-10-02T00:04:41.516Z,81.77
2022-10-02T00:05:51.689Z,81.55
2022-10-02T00:06:57.955Z,82.02
2022-10-02T00:08:06.901Z,81.99
2022-10-02T00:09:15.779Z,81.71
2022-10-02T00:10:44.752Z,82.24
2022-10-02T00:11:50.577Z,82.26
2022-10-02T00:12:58.451Z,82.13
2022-10-02T00:14:03.804Z,82.46
2022-10-02T00:15:17.406Z,83.28
2022-10-02T00:16:24.565Z,83.61
2022-10-02T00:17:34.375Z,83.16
2022-10-02T00:18:38.028Z,82.84
2022-10-02T00:19:39.461Z,82.87
2022-10-02T00:21:03.358Z,82.36
2022-10-02T00:22:09.079Z,82.58
2022-10-02T00:23:19.597Z,82.06
2022-10-02T00:24:27.184Z,82.08
2022-10-02T00:25:53.318Z,82.05
2022-10-02T00:27:01.201Z,82.60
2022-10-02T00:28:23.158Z,83.26
2022-10-02T00:29:34.550Z,83.05
2022-10-02T00:31:06.248Z,82.94
2022-10-02T00:32:36.677Z,82.68
2022-10-02T00:34:03.196Z,82.59
2022-10-02T00:35:22.825Z,82.37
2022-10-02T00:36:35.545Z,82.29
2022-10-02T00:38:06.127Z,82.24
2022-10-02T00:39:25.523Z,82.54
2022-10-02T00:40:59.509Z,82.53
2022-10-02T00:42:28.787Z,82.54
2022-10-02T00:43:57.170Z,82.77
2022-10-02T00:45:01.593Z,82.66
2022-10-02T00:46:09.162Z,82.60
2022-10-02T00:47:19.831Z,82.53
2022-10-02T00:48:27.332Z,82.53
2022-10-02T00:49:47.482Z,82.36
2022-10-02T00:51:03.527Z,82.53
2022-10-02T00:52:25.966Z,83.19
2022-10-02T00:53:56.599Z,82.47
2022-10-02T00:55:04.030Z,82.10
2022-10-02T00:56:27.643Z,82.45
2022-10-02T00:58:16.845Z,82.60
2022-10-02T00:59:40.971Z,83.02
2022-10-02T01:00:52.298Z,82.68
2022-10-02T01:02:04.368Z,82.83
2022-10-02T01:03:21.552Z,83.13
2022-10-02T01:04:27.971Z,83.03
2022-10-02T01:05:30.548Z,82.44
2022-10-02T01:06:32.631Z,81.59
2022-10-02T01:07:38.990Z,82.39
2022-10-02T01:08:41.080Z,82.84
2022-10-02T01:09:42.903Z,82.31
2022-10-02T01:10:45.689Z,82.94
2022-10-02T01:11:49.086Z,82.65
2022-10-02T01:12:50.528Z,82.13
2022-10-02T01:13:52.168Z,82.12
2022-10-02T01:14:53.615Z,81.98
2022-10-02T01:15:57.392Z,82.65
2022-10-02T01:16:58.892Z,82.69
2022-10-02T01:18:02.205Z,82.48
2022-10-02T01:19:03.804Z,82.92
2022-10-02T01:20:07.175Z,82.50
2022-10-02T01:21:15.228Z,82.77
2022-10-02T01:22:41.853Z,82.97
2022-10-02T01:23:57.324Z,83.45
2022-10-02T01:25:02.049Z,82.88
2022-10-02T01:26:03.945Z,83.38
2022-10-02T01:27:05.399Z,83.17
2022-10-02T01:28:07.011Z,82.93
2022-10-02T01:29:08.865Z,82.98
2022-10-02T01:30:14.762Z,83.05
2022-10-02T01:31:17.435Z,83.08
2022-10-02T01:32:19.404Z,83.09
2022-10-02T01:33:23.092Z,82.27
2022-10-02T01:34:24.594Z,82.65
2022-10-02T01:35:31.951Z,82.77
2022-10-02T01:36:35.878Z,83.00
2022-10-02T01:37:41.006Z,82.59
2022-10-02T01:38:44.272Z,81.87
2022-10-02T01:39:45.878Z,82.41
2022-10-02T01:40:47.689Z,82.42
2022-10-02T01:41:49.151Z,82.22
2022-10-02T01:42:50.985Z,82.66
2022-10-02T01:43:56.160Z,82.80
2022-10-02T01:44:58.331Z,83.40
2022-10-02T01:46:23.102Z,83.22
2022-10-02T01:47:44.246Z,83.01
2022-10-02T01:48:53.066Z,83.23
2022-10-02T01:50:01.340Z,83.18
2022-10-02T01:51:39.152Z,82.21
2022-10-02T01:53:07.896Z,82.17
2022-10-02T01:54:33.265Z,82.19
2022-10-02T01:56:17.348Z,82.98
2022-10-02T01:57:21.474Z,83.04
2022-10-02T01:58:56.540Z,83.10
2022-10-02T02:00:08.086Z,82.95
2022-10-02T02:01:24.929Z,82.98
2022-10-02T02:02:30.327Z,82.93
2022-10-02T02:03:44.486Z,83.17
2022-10-02T02:04:56.949Z,82.90
2022-10-02T02:06:09.858Z,83.31
2022-10-02T02:07:27.069Z,83.26
2022-10-02T02:08:43.979Z,83.57
2022-10-02T02:10:05.071Z,83.76
2022-10-02T02:11:21.781Z,83.86
2022-10-02T02:12:38.398Z,84.17
2022-10-02T02:13:58.356Z,83.61
2022-10-02T02:15:06.540Z,84.28
2022-10-02T02:16:08.110Z,83.79
2022-10-02T02:17:17.787Z,83.85
2022-10-02T02:18:43.446Z,83.41
2022-10-02T02:20:07.768Z,83.89
2022-10-02T02:21:17.038Z,83.55
2022-10-02T02:22:44.286Z,83.99
2022-10-02T02:23:47.287Z,83.96
2022-10-02T02:25:00.328Z,84.32
2022-10-02T02:26:06.880Z,83.75
2022-10-02T02:27:15.081Z,83.63
2022-10-02T02:28:20.971Z,84.03
2022-10-02T02:29:24.657Z,83.62
2022-10-02T02:30:27.669Z,83.38
2022-10-02T02:31:35.567Z,83.24
2022-10-02T02:32:43.948Z,83.68
2022-10-02T02:33:52.914Z,83.67
2022-10-02T02:35:04.147Z,83.84
2022-10-02T02:36:14.534Z,83.82
2022-10-02T02:37:19.256Z,83.75
2022-10-02T02:38:28.669Z,83.64
2022-10-02T02:39:40.497Z,83.55
2022-10-02T02:40:45.457Z,83.31
2022-10-02T02:41:56.187Z,83.68
2022-10-02T02:43:06.111Z,84.40
2022-10-02T02:44:30.631Z,83.83
2022-10-02T02:45:38.002Z,84.33
2022-10-02T02:47:06.834Z,84.63
2022-10-02T02:48:39.434Z,85.25
2022-10-02T02:49:56.050Z,84.33
2022-10-02T02:51:10.575Z,84.47
2022-10-02T02:52:19.906Z,84.11
2022-10-02T02:53:30.383Z,84.04
2022-10-02T02:54:40.002Z,84.49
2022-10-02T02:55:58.549Z,84.40
2022-10-02T02:57:02.527Z,84.08
2022-10-02T02:58:23.786Z,84.13
2022-10-02T02:59:29.826Z,84.57
2022-10-02T03:00:31.490Z,84.54
2022-10-02T03:01:33.404Z,84.34
2022-10-02T03:02:35.056Z,84.30
2022-10-02T03:03:36.532Z,84.38
2022-10-02T03:04:37.936Z,84.42
2022-10-02T03:05:44.384Z,84.25
2022-10-02T03:06:49.622Z,84.59
2022-10-02T03:07:55.134Z,84.66
2022-10-02T03:08:56.584Z,84.25
2022-10-02T03:10:10.013Z,84.25
2022-10-02T03:11:19.496Z,84.36
2022-10-02T03:12:34.128Z,84.62
2022-10-02T03:14:05.156Z,84.65
2022-10-02T03:15:36.712Z,84.28
2022-10-02T03:16:53.774Z,84.09
2022-10-02T03:18:08.357Z,84.63
2022-10-02T03:19:23.178Z,85.08
2022-10-02T03:20:42.799Z,84.33
2022-10-02T03:22:13.384Z,84.69
2022-10-02T03:23:19.768Z,84.66
2022-10-02T03:24:45.262Z,85.43
2022-10-02T03:25:59.296Z,85.36
2022-10-02T03:27:25.370Z,85.19
2022-10-02T03:28:59.456Z,84.62
2022-10-02T03:30:08.546Z,85.08
2022-10-02T03:31:11.095Z,85.52
2022-10-02T03:32:16.442Z,85.36
2022-10-02T03:33:17.935Z,85.19
2022-10-02T03:34:19.627Z,85.75
2022-10-02T03:35:23.654Z,85.48
2022-10-02T03:36:25.883Z,85.63
2022-10-02T03:37:28.564Z,85.43
2022-10-02T03:38:31.624Z,85.56
2022-10-02T03:39:33.064Z,85.78
2022-10-02T03:40:34.502Z,85.91
2022-10-02T03:41:36.558Z,85.46
2022-10-02T03:42:38.790Z,85.72
2022-10-02T03:43:40.377Z,85.37
2022-10-02T03:44:43.164Z,84.78
2022-10-02T03:45:51.257Z,84.94
2022-10-02T03:46:53.670Z,84.80
2022-10-02T03:47:55.268Z,85.14
2022-10-02T03:48:56.728Z,85.48
2022-10-02T03:49:58.612Z,85.45
2022-10-02T03:51:00.108Z,85.61
2022-10-02T03:52:02.319Z,85.54
2022-10-02T03:53:13.465Z,84.67
2022-10-02T03:54:20.852Z,84.83
2022-10-02T03:55:38.922Z,85.31
2022-10-02T03:56:48.184Z,85.31
2022-10-02T03:57:49.795Z,85.51
2022-10-02T03:58:55.071Z,85.17
2022-10-02T03:59:59.524Z,85.15
2022-10-02T04:01:19.752Z,84.65
2022-10-02T04:02:34.621Z,84.52
2022-10-02T04:03:49.919Z,84.96
2022-10-02T04:05:00.080Z,84.75
2022-10-02T04:06:11.448Z,84.87
2022-10-02T04:07:26.143Z,84.54
2022-10-02T04:08:34.533Z,84.46
2022-10-02T04:09:51.946Z,84.30
2022-10-02T04:11:12.949Z,84.15
2022-10-02T04:12:23.468Z,84.17
2022-10-02T04:13:32.134Z,84.23
2022-10-02T04:14:43.084Z,83.65
2022-10-02T04:15:57.860Z,83.72
2022-10-02T04:17:10.852Z,83.26
2022-10-02T04:18:39.281Z,83.81
2022-10-02T04:20:14.256Z,84.51
2022-10-02T04:21:23.397Z,84.50
2022-10-02T04:22:40.052Z,84.39
2022-10-02T04:23:52.111Z,84.36
2022-10-02T04:25:10.435Z,84.48
2022-10-02T04:26:21.002Z,84.57
2022-10-02T04:27:40.110Z,84.78
2022-10-02T04:28:52.615Z,83.99
2022-10-02T04:30:04.934Z,84.24
2022-10-02T04:31:13.408Z,84.25
2022-10-02T04:32:21.434Z,84.12
2022-10-02T04:33:24.882Z,84.37
2022-10-02T04:34:28.223Z,84.15
2022-10-02T04:35:36.054Z,84.60
2022-10-02T04:36:46.054Z,83.93
2022-10-02T04:37:56.634Z,84.47
2022-10-02T04:39:03.507Z,85.08
2022-10-02T04:40:26.874Z,85.39
2022-10-02T04:41:43.139Z,85.00
2022-10-02T04:43:23.752Z,84.71
2022-10-02T04:44:51.464Z,83.76
2022-10-02T04:46:08.534Z,84.24
2022-10-02T04:47:46.631Z,84.17
2022-10-02T04:49:18.794Z,84.22
2022-10-02T04:50:33.922Z,84.32
2022-10-02T04:52:14.212Z,84.17
2022-10-02T04:53:29.377Z,83.25
2022-10-02T04:54:39.484Z,83.49
2022-10-02T04:56:11.437Z,84.63
2022-10-02T04:57:27.886Z,84.74
2022-10-02T04:58:49.733Z,83.44
2022-10-02T05:00:13.724Z,83.71
2022-10-02T05:01:52.902Z,84.14
2022-10-02T05:03:11.002Z,84.34
2022-10-02T05:04:18.103Z,83.52
2022-10-02T05:05:29.551Z,83.80
2022-10-02T05:06:46.291Z,83.41
2022-10-02T05:08:02.980Z,83.60
2022-10-02T05:09:13.193Z,83.62
2022-10-02T05:10:35.713Z,83.39
2022-10-02T05:12:15.526Z,82.70
2022-10-02T05:13:16.867Z,83.40
2022-10-02T05:14:27.297Z,83.35
2022-10-02T05:15:35.252Z,82.91
2022-10-02T05:16:58.958Z,82.82
2022-10-02T05:18:09.327Z,83.14
2022-10-02T05:19:36.898Z,83.28
2022-10-02T05:21:17.915Z,82.54
2022-10-02T05:22:54.920Z,83.15
2022-10-02T05:24:02.370Z,83.23
2022-10-02T05:25:15.950Z,82.37
2022-10-02T05:26:44.218Z,82.42
2022-10-02T05:28:02.370Z,82.54
2022-10-02T05:29:42.139Z,82.68
2022-10-02T05:30:49.455Z,82.88
2022-10-02T05:32:17.634Z,83.04
2022-10-02T05:33:57.515Z,83.30
2022-10-02T05:35:37.451Z,82.82
2022-10-02T05:36:49.679Z,82.69
2022-10-02T05:38:19.156Z,82.89
2022-10-02T05:39:43.836Z,82.85
2022-10-02T05:40:56.839Z,81.92
2022-10-02T05:41:58.554Z,82.51
2022-10-02T05:43:20.777Z,82.41
2022-10-02T05:44:27.138Z,82.26
2022-10-02T05:45:37.440Z,81.85
2022-10-02T05:46:52.199Z,82.32
2022-10-02T05:48:02.676Z,82.43
2022-10-02T05:49:14.199Z,82.35
2022-10-02T05:50:18.615Z,82.73
2022-10-02T05:51:37.145Z,82.95
2022-10-02T05:52:57.909Z,82.89
2022-10-02T05:54:07.169Z,82.90
2022-10-02T05:55:37.877Z,83.12
2022-10-02T05:56:46.231Z,83.53
2022-10-02T05:58:15.003Z,84.55
2022-10-02T05:59:25.747Z,84.06
2022-10-02T06:00:40.472Z,83.92
2022-10-02T06:01:46.841Z,83.05
2022-10-02T06:03:08.231Z,83.65
2022-10-02T06:04:09.544Z,83.24
2022-10-02T06:05:17.739Z,83.35
2022-10-02T06:06:42.154Z,83.19
2022-10-02T06:07:47.531Z,83.38
2022-10-02T06:09:04.442Z,84.17
2022-10-02T06:10:22.081Z,83.58
2022-10-02T06:11:31.424Z,83.01
2022-10-02T06:12:42.519Z,83.22
2022-10-02T06:13:49.921Z,83.03
2022-10-02T06:14:57.850Z,83.45
2022-10-02T06:16:19.238Z,82.90
2022-10-02T06:17:31.323Z,82.96
2022-10-02T06:18:36.547Z,82.72
2022-10-02T06:19:52.219Z,82.65
2022-10-02T06:20:59.413Z,83.13
2022-10-02T06:22:13.868Z,83.04
2022-10-02T06:23:22.494Z,83.30
2022-10-02T06:24:31.056Z,83.23
2022-10-02T06:25:40.134Z,83.24
2022-10-02T06:26:46.173Z,84.06
2022-10-02T06:28:09.926Z,83.92
2022-10-02T06:29:27.056Z,83.54
2022-10-02T06:30:32.905Z,83.46
2022-10-02T06:31:42.310Z,83.40
2022-10-02T06:32:55.917Z,82.92
2022-10-02T06:33:57.906Z,83.71
2022-10-02T06:34:59.349Z,84.37
2022-10-02T06:36:22.903Z,84.47
2022-10-02T06:37:24.598Z,85.00
2022-10-02T06:38:55.480Z,83.92
2022-10-02T06:40:34.329Z,84.38
2022-10-02T06:41:47.656Z,84.67
2022-10-02T06:43:27.192Z,84.49
2022-10-02T06:44:35.520Z,83.88
2022-10-02T06:45:48.637Z,83.78
2022-10-02T06:47:21.757Z,83.26
2022-10-02T06:48:53.029Z,82.95
2022-10-02T06:50:04.917Z,82.60
2022-10-02T06:51:29.360Z,83.02
2022-10-02T06:52:54.937Z,82.88
2022-10-02T06:54:34.167Z,83.17
2022-10-02T06:55:52.103Z,83.62
2022-10-02T06:57:20.010Z,83.47
2022-10-02T06:58:47.188Z,83.36
2022-10-02T07:00:12.277Z,83.02
2022-10-02T07:01:35.391Z,82.94
2022-10-02T07:02:55.101Z,82.81
2022-10-02T07:04:26.051Z,82.88
2022-10-02T07:05:49.660Z,83.62
2022-10-02T07:07:06.939Z,83.34
2022-10-02T07:08:29.908Z,83.24
2022-10-02T07:09:51.586Z,83.21
2022-10-02T07:11:08.322Z,83.56
2022-10-02T07:12:31.317Z,84.09
2022-10-02T07:14:07.074Z,83.71
2022-10-02T07:15:09.251Z,83.19
2022-10-02T07:16:50.241Z,83.38
2022-10-02T07:18:19.868Z,82.78
2022-10-02T07:19:33.259Z,83.17
2022-10-02T07:20:39.699Z,82.93
2022-10-02T07:21:50.675Z,82.71
2022-10-02T07:23:13.520Z,83.10
2022-10-02T07:24:39.983Z,83.71
2022-10-02T07:25:47.213Z,83.83
2022-10-02T07:26:59.607Z,83.57
2022-10-02T07:28:39.750Z,84.14
2022-10-02T07:29:52.967Z,84.14
2022-10-02T07:31:01.472Z,84.59
2022-10-02T07:32:41.556Z,83.71
2022-10-02T07:34:17.236Z,83.71
2022-10-02T07:35:28.285Z,84.03
2022-10-02T07:36:46.807Z,84.28
2022-10-02T07:38:12.615Z,84.34
2022-10-02T07:39:52.416Z,83.83
2022-10-02T07:41:24.427Z,83.84
2022-10-02T07:42:43.915Z,83.67
2022-10-02T07:44:22.386Z,83.23
2022-10-02T07:45:26.956Z,83.09
2022-10-02T07:46:44.374Z,83.68
2022-10-02T07:48:33.327Z,83.24
2022-10-02T07:49:50.751Z,82.37
2022-10-02T07:51:27.124Z,82.85
2022-10-02T07:52:47.102Z,83.82
2022-10-02T07:53:56.356Z,84.20
2022-10-02T07:55:09.636Z,83.61
2022-10-02T07:56:20.125Z,83.93
2022-10-02T07:57:45.905Z,83.66
2022-10-02T07:58:54.802Z,83.91
2022-10-02T08:00:20.688Z,82.84
2022-10-02T08:01:30.748Z,82.79
2022-10-02T08:02:46.102Z,83.97
2022-10-02T08:03:59.667Z,83.94
2022-10-02T08:05:05.992Z,84.19
2022-10-02T08:06:08.553Z,83.62
2022-10-02T08:07:10.709Z,83.90
2022-10-02T08:08:28.626Z,84.23
2022-10-02T08:09:48.113Z,85.28
2022-10-02T08:10:57.685Z,85.69
2022-10-02T08:12:08.329Z,85.49
2022-10-02T08:13:28.361Z,85.29
2022-10-02T08:14:41.783Z,85.07
2022-10-02T08:15:47.202Z,84.27
2022-10-02T08:16:55.041Z,83.61
2022-10-02T08:18:11.004Z,84.12
2022-10-02T08:19:29.946Z,84.38
2022-10-02T08:20:36.474Z,85.86
2022-10-02T08:22:12.924Z,86.60
2022-10-02T08:23:23.044Z,87.07
2022-10-02T08:24:36.809Z,86.88
2022-10-02T08:25:49.645Z,85.85
2022-10-02T08:27:13.186Z,85.72
2022-10-02T08:28:31.609Z,86.43
2022-10-02T08:29:33.030Z,85.44
2022-10-02T08:30:34.650Z,86.16
2022-10-02T08:31:36.580Z,86.63
2022-10-02T08:32:38.602Z,86.45
2022-10-02T08:33:40.350Z,86.42
2022-10-02T08:34:42.529Z,85.76
2022-10-02T08:36:13.177Z,85.10
2022-10-02T08:37:21.295Z,85.55
2022-10-02T08:38:39.391Z,84.77
2022-10-02T08:39:44.184Z,85.27
2022-10-02T08:41:05.045Z,85.41
2022-10-02T08:43:05.197Z,85.19
2022-10-02T08:44:24.877Z,85.53
2022-10-02T08:45:51.359Z,85.92
2022-10-02T08:47:23.558Z,85.94
2022-10-02T08:48:56.248Z,86.29
2022-10-02T08:50:34.899Z,85.51
2022-10-02T08:51:58.498Z,86.34
2022-10-02T08:53:37.423Z,85.85
2022-10-02T08:55:00.673Z,86.06
2022-10-02T08:56:19.811Z,86.06
2022-10-02T08:57:52.811Z,86.45
2022-10-02T08:59:19.081Z,85.17
2022-10-02T09:00:57.857Z,85.52
2022-10-02T09:02:14.239Z,86.04
2022-10-02T09:03:45.845Z,85.52
2022-10-02T09:05:09.789Z,85.33
2022-10-02T09:06:30.549Z,86.47
2022-10-02T09:08:08.790Z,85.82
2022-10-02T09:09:28.494Z,86.33
2022-10-02T09:10:55.651Z,85.99
2022-10-02T09:12:06.325Z,86.07
2022-10-02T09:13:13.346Z,86.68
2022-10-02T09:14:34.729Z,86.85
2022-10-02T09:16:09.540Z,87.61
2022-10-02T09:17:30.985Z,87.11
2022-10-02T09:18:51.006Z,87.02
2022-10-02T09:20:04.329Z,86.60
2022-10-02T09:21:50.881Z,86.25
2022-10-02T09:23:17.282Z,86.70
2022-10-02T09:25:01.719Z,87.39
2022-10-02T09:26:36.355Z,86.92
2022-10-02T09:28:06.270Z,87.32
2022-10-02T09:29:35.036Z,88.11
2022-10-02T09:30:57.568Z,87.93
2022-10-02T09:32:11.905Z,88.22
2022-10-02T09:33:22.090Z,87.76
2022-10-02T09:34:56.166Z,87.30
2022-10-02T09:36:24.732Z,88.31
2022-10-02T09:38:11.403Z,87.22
2022-10-02T09:39:31.047Z,87.44
2022-10-02T09:40:54.729Z,87.89
2022-10-02T09:42:21.206Z,87.74
2022-10-02T09:43:51.919Z,87.73
2022-10-02T09:45:19.080Z,88.08
2022-10-02T09:46:31.183Z,87.25
2022-10-02T09:48:23.007Z,87.14
2022-10-02T09:49:46.121Z,87.53
2022-10-02T09:51:09.468Z,87.82
2022-10-02T09:52:30.610Z,87.02
2022-10-02T09:53:47.274Z,87.15
2022-10-02T09:54:58.020Z,87.60
2022-10-02T09:56:18.431Z,87.50
2022-10-02T09:57:49.173Z,87.58
2022-10-02T09:59:12.431Z,87.43
2022-10-02T10:00:19.881Z,87.85
2022-10-02T10:02:05.878Z,87.80
2022-10-02T10:03:28.893Z,87.61
2022-10-02T10:05:00.940Z,87.55
2022-10-02T10:06:22.510Z,87.60
2022-10-02T10:07:59.012Z,87.70
2022-10-02T10:09:49.813Z,88.83
2022-10-02T10:11:10.607Z,89.94
2022-10-02T10:12:43.373Z,88.36
2022-10-02T10:13:47.850Z,88.40
2022-10-02T10:14:55.190Z,88.38
2022-10-02T10:16:33.268Z,88.03
2022-10-02T10:18:13.696Z,88.03
2022-10-02T10:19:52.768Z,89.07
2022-10-02T10:21:20.579Z,89.03
2022-10-02T10:22:47.091Z,89.36
2022-10-02T10:24:26.452Z,89.09
2022-10-02T10:25:51.388Z,89.09
2022-10-02T10:27:19.526Z,88.50
2022-10-02T10:28:53.355Z,88.77
2022-10-02T10:30:26.579Z,88.46
2022-10-02T10:32:04.042Z,88.81
2022-10-02T10:33:34.537Z,90.31
2022-10-02T10:34:49.624Z,90.56
2022-10-02T10:36:29.573Z,89.31
2022-10-02T10:38:11.946Z,89.07
2022-10-02T10:39:38.272Z,88.44
2022-10-02T10:40:58.001Z,89.50
2022-10-02T10:43:07.038Z,88.87
2022-10-02T10:44:22.252Z,88.77
2022-10-02T10:45:59.994Z,88.15
2022-10-02T10:47:16.027Z,87.18
2022-10-02T10:48:33.134Z,87.48
2022-10-02T10:50:03.248Z,88.02
2022-10-02T10:51:30.529Z,88.38
2022-10-02T10:52:54.391Z,88.73
2022-10-02T10:54:17.366Z,88.81
2022-10-02T10:55:33.178Z,89.14
2022-10-02T10:56:39.346Z,89.44
2022-10-02T10:57:43.946Z,89.48
2022-10-02T10:59:25.316Z,89.37
2022-10-02T11:00:49.055Z,89.43
2022-10-02T11:02:20.606Z,89.95
2022-10-02T11:03:41.425Z,90.25
2022-10-02T11:04:58.448Z,89.67
2022-10-02T11:06:22.298Z,89.26
2022-10-02T11:07:35.438Z,89.34
2022-10-02T11:08:45.664Z,89.14
2022-10-02T11:10:11.248Z,89.18
2022-10-02T11:11:27.868Z,89.67
2022-10-02T11:12:54.013Z,89.69
2022-10-02T11:14:19.849Z,89.49
2022-10-02T11:15:41.057Z,90.11
2022-10-02T11:17:11.323Z,90.47
2022-10-02T11:18:28.788Z,90.70
2022-10-02T11:19:54.744Z,90.73
2022-10-02T11:21:10.672Z,90.56
2022-10-02T11:22:46.898Z,90.69
2022-10-02T11:23:57.335Z,90.45
2022-10-02T11:25:14.097Z,89.76
2022-10-02T11:26:45.025Z,89.28
2022-10-02T11:28:05.299Z,89.30
2022-10-02T11:29:25.728Z,89.59
2022-10-02T11:30:41.892Z,89.46
2022-10-02T11:32:28.320Z,88.77
2022-10-02T11:33:57.263Z,88.92
2022-10-02T11:35:10.587Z,88.92
2022-10-02T11:36:21.255Z,89.33
2022-10-02T11:37:53.548Z,89.53
2022-10-02T11:39:06.754Z,89.46
2022-10-02T11:40:30.072Z,89.33
2022-10-02T11:42:05.573Z,89.52
2022-10-02T11:43:44.043Z,89.62
2022-10-02T11:44:57.804Z,89.46
2022-10-02T11:46:00.197Z,89.62
2022-10-02T11:47:18.112Z,89.54
2022-10-02T11:48:44.774Z,90.51
2022-10-02T11:50:08.409Z,90.19
2022-10-02T11:51:30.107Z,90.21
2022-10-02T11:52:48.416Z,89.54
2022-10-02T11:54:23.216Z,89.59
2022-10-02T11:55:33.883Z,90.45
2022-10-02T11:56:59.102Z,90.69
2022-10-02T11:58:13.153Z,90.34
2022-10-02T11:59:33.633Z,90.32
2022-10-02T12:01:13.240Z,90.78
2022-10-02T12:02:37.583Z,90.35
2022-10-02T12:04:01.703Z,89.23
2022-10-02T12:05:34.645Z,88.18
2022-10-02T12:06:48.170Z,88.45
2022-10-02T12:08:30.960Z,89.22
2022-10-02T12:09:58.968Z,89.36
2022-10-02T12:11:37.629Z,89.78
2022-10-02T12:12:58.735Z,90.05
2022-10-02T12:14:17.040Z,90.19
2022-10-02T12:15:50.441Z,89.50
2022-10-02T12:16:55.067Z,88.65
2022-10-02T12:18:19.466Z,88.83
2022-10-02T12:19:37.512Z,88.63
2022-10-02T12:21:06.746Z,88.93
2022-10-02T12:23:08.078Z,89.17
2022-10-02T12:24:36.482Z,89.08
2022-10-02T12:26:22.172Z,89.59
2022-10-02T12:27:39.747Z,89.60
2022-10-02T12:29:13.275Z,89.21
2022-10-02T12:30:22.393Z,89.18
2022-10-02T12:31:55.785Z,88.62
2022-10-02T12:33:09.579Z,88.68
2022-10-02T12:34:24.361Z,88.88
2022-10-02T12:35:59.537Z,89.44
2022-10-02T12:37:38.645Z,90.03
2022-10-02T12:39:21.977Z,89.99
2022-10-02T12:40:31.837Z,89.13
2022-10-02T12:42:11.638Z,89.19
2022-10-02T12:43:17.746Z,89.13
2022-10-02T12:44:39.242Z,89.60
2022-10-02T12:45:49.592Z,89.52
2022-10-02T12:47:11.261Z,89.51
2022-10-02T12:48:47.989Z,89.34
2022-10-02T12:50:17.263Z,88.83
2022-10-02T12:51:48.093Z,88.75
2022-10-02T12:53:27.294Z,88.34
2022-10-02T12:54:47.474Z,88.51
2022-10-02T12:56:36.310Z,88.64
2022-10-02T12:57:53.485Z,88.42
2022-10-02T12:59:11.997Z,88.36
2022-10-02T13:00:18.739Z,87.80
2022-10-02T13:01:37.784Z,87.76
2022-10-02T13:03:15.667Z,87.64
2022-10-02T13:04:26.599Z,87.41
2022-10-02T13:05:51.236Z,88.34
2022-10-02T13:07:14.720Z,88.54
2022-10-02T13:08:31.952Z,88.61
2022-10-02T13:09:55.108Z,88.39
2022-10-02T13:11:31.327Z,87.61
2022-10-02T13:13:04.736Z,87.91
2022-10-02T13:14:26.352Z,88.22
2022-10-02T13:15:42.414Z,88.42
2022-10-02T13:16:46.752Z,88.89
2022-10-02T13:18:02.908Z,88.25
2022-10-02T13:19:15.933Z,86.99
2022-10-02T13:20:41.890Z,87.16
2022-10-02T13:21:58.967Z,87.63
2022-10-02T13:23:22.245Z,87.76
2022-10-02T13:24:56.303Z,88.24
2022-10-02T13:26:30.407Z,88.28
2022-10-02T13:28:03.732Z,89.48
2022-10-02T13:29:33.014Z,88.38
2022-10-02T13:30:50.302Z,88.70
2022-10-02T13:32:16.367Z,88.66
2022-10-02T13:33:42.805Z,88.89
2022-10-02T13:35:14.705Z,88.90
2022-10-02T13:36:44.072Z,90.19
2022-10-02T13:38:28.864Z,89.40
2022-10-02T13:39:58.466Z,90.05
2022-10-02T13:41:35.521Z,89.99
2022-10-02T13:43:03.796Z,88.76
2022-10-02T13:44:12.464Z,88.35
2022-10-02T13:45:49.859Z,88.67
2022-10-02T13:46:57.606Z,88.41
2022-10-02T13:48:22.683Z,88.53
2022-10-02T13:49:54.097Z,88.50
2022-10-02T13:51:29.630Z,88.00
2022-10-02T13:53:09.098Z,88.66
2022-10-02T13:54:48.102Z,88.93
2022-10-02T13:56:04.068Z,88.60
2022-10-02T13:57:33.071Z,88.41
2022-10-02T13:59:02.181Z,88.69
2022-10-02T14:00:39.045Z,87.80
2022-10-02T14:02:01.667Z,88.11
2022-10-02T14:03:27.132Z,87.81
2022-10-02T14:04:50.941Z,87.80
2022-10-02T14:06:01.314Z,87.96
2022-10-02T14:07:15.216Z,88.05
2022-10-02T14:08:54.957Z,88.36
2022-10-02T14:10:16.635Z,88.21
2022-10-02T14:11:50.414Z,88.46
2022-10-02T14:13:27.342Z,87.98
2022-10-02T14:14:38.023Z,88.57
2022-10-02T14:15:54.228Z,88.38
2022-10-02T14:17:18.632Z,87.87
2022-10-02T14:18:45.924Z,87.07
2022-10-02T14:20:03.288Z,87.72
2022-10-02T14:21:17.771Z,88.36
2022-10-02T14:22:35.331Z,88.28
2022-10-02T14:23:48.613Z,87.99
2022-10-02T14:25:13.330Z,87.74
2022-10-02T14:26:49.702Z,87.84
2022-10-02T14:28:06.826Z,87.96
2022-10-02T14:29:21.779Z,87.95
2022-10-02T14:30:41.152Z,88.26
2022-10-02T14:31:48.772Z,88.30
2022-10-02T14:33:08.136Z,88.78
2022-10-02T14:34:34.052Z,88.42
2022-10-02T14:35:57.357Z,87.40
2022-10-02T14:37:41.884Z,87.39
2022-10-02T14:38:49.690Z,87.62
2022-10-02T14:39:53.019Z,87.92
2022-10-02T14:40:57.191Z,87.76
2022-10-02T14:42:18.754Z,87.05
2022-10-02T14:43:51.931Z,86.89
2022-10-02T14:45:26.653Z,87.88
2022-10-02T14:46:51.837Z,87.88
2022-10-02T14:48:35.061Z,87.33
2022-10-02T14:49:49.635Z,87.42
2022-10-02T14:51:06.910Z,88.13
2022-10-02T14:52:22.690Z,88.24
2022-10-02T14:53:37.422Z,87.71
2022-10-02T14:55:09.819Z,87.86
2022-10-02T14:56:20.634Z,87.43
2022-10-02T14:57:48.037Z,87.83
2022-10-02T14:59:13.860Z,87.88
2022-10-02T15:00:18.330Z,87.98
2022-10-02T15:01:22.518Z,87.70
2022-10-02T15:02:34.599Z,87.73
2022-10-02T15:03:47.705Z,87.36
2022-10-02T15:05:14.110Z,86.99
2022-10-02T15:06:51.799Z,86.62
2022-10-02T15:07:54.132Z,86.67
2022-10-02T15:09:02.795Z,86.91
2022-10-02T15:10:21.984Z,87.05
2022-10-02T15:11:35.805Z,87.24
2022-10-02T15:12:43.983Z,87.09
2022-10-02T15:14:01.769Z,87.33
2022-10-02T15:15:15.294Z,87.78
2022-10-02T15:17:05.849Z,87.47
2022-10-02T15:18:38.555Z,87.60
2022-10-02T15:19:50.068Z,87.24
2022-10-02T15:21:01.803Z,87.59
2022-10-02T15:22:19.200Z,87.29
2022-10-02T15:23:48.570Z,87.51
2022-10-02T15:24:58.481Z,87.28
2022-10-02T15:26:37.535Z,87.96
2022-10-02T15:27:51.981Z,87.66
2022-10-02T15:29:11.595Z,87.70
2022-10-02T15:30:22.304Z,87.58
2022-10-02T15:31:44.215Z,86.99
2022-10-02T15:33:12.825Z,86.60
2022-10-02T15:34:32.224Z,86.43
2022-10-02T15:35:51.573Z,87.53
2022-10-02T15:37:04.707Z,87.65
2022-10-02T15:38:17.567Z,87.58
2022-10-02T15:39:34.810Z,87.05
2022-10-02T15:40:49.937Z,87.51
2022-10-02T15:42:04.506Z,87.29
2022-10-02T15:43:15.350Z,88.13
2022-10-02T15:44:39.776Z,88.89
2022-10-02T15:46:05.872Z,88.50
2022-10-02T15:47:35.661Z,88.07
2022-10-02T15:49:03.454Z,87.76
2022-10-02T15:50:32.759Z,87.43
2022-10-02T15:52:02.168Z,87.06
2022-10-02T15:53:47.731Z,86.65
2022-10-02T15:55:05.952Z,86.67
2022-10-02T15:56:40.466Z,86.26
2022-10-02T15:57:41.879Z,86.77
2022-10-02T15:59:08.846Z,86.85
2022-10-02T16:00:10.558Z,86.83
2022-10-02T16:01:44.326Z,86.90
2022-10-02T16:03:16.983Z,86.70
2022-10-02T16:04:33.972Z,86.22
2022-10-02T16:05:51.171Z,86.00
2022-10-02T16:07:11.405Z,86.18
2022-10-02T16:08:30.988Z,87.46
2022-10-02T16:09:58.171Z,87.99
2022-10-02T16:11:33.530Z,87.72
2022-10-02T16:13:12.884Z,86.90
2022-10-02T16:14:49.858Z,86.92
2022-10-02T16:16:17.693Z,87.33
2022-10-02T16:17:44.516Z,87.14
2022-10-02T16:19:23.743Z,86.76
2022-10-02T16:20:31.177Z,87.17
2022-10-02T16:21:39.162Z,86.88
2022-10-02T16:23:01.556Z,86.14
2022-10-02T16:24:21.936Z,86.05
2022-10-02T16:26:03.243Z,86.09
2022-10-02T16:27:23.212Z,86.31
2022-10-02T16:28:46.525Z,86.53
2022-10-02T16:30:13.394Z,87.22
2022-10-02T16:31:43.677Z,87.44
2022-10-02T16:33:19.010Z,86.92
2022-10-02T16:34:51.333Z,86.63
2022-10-02T16:36:14.101Z,87.16
2022-10-02T16:37:26.624Z,86.39
2022-10-02T16:38:47.645Z,86.70
2022-10-02T16:40:03.156Z,87.07
2022-10-02T16:41:15.282Z,87.30
2022-10-02T16:42:48.563Z,87.32
2022-10-02T16:43:58.816Z,87.36
2022-10-02T16:45:18.746Z,87.31
2022-10-02T16:46:32.449Z,87.38
2022-10-02T16:47:53.414Z,86.88
2022-10-02T16:49:02.450Z,87.46
2022-10-02T16:50:12.990Z,87.18
2022-10-02T16:51:28.806Z,87.16
2022-10-02T16:52:38.190Z,87.14
2022-10-02T16:54:08.562Z,87.19
2022-10-02T16:55:30.853Z,87.05
2022-10-02T16:56:54.324Z,87.42